< < Back
Terminal Aerodrome Forecast


Current Version              Previous Versions:   1  2  3  4  5  6  7  8  9  

Terminal Aerodrome Forecast

137
FTUS42 KGSP 182100 AAB
TAFCLT
TAF AMD
KCLT 182109Z 1821/1918 05004KT P6SM SCT035 BKN070
     FM190100 11004KT P6SM BKN040
     FM190700 07004KT P6SM BKN030
     FM191000 05004KT 4SM BR OVC007
     FM191400 07007KT P6SM BKN017
     FM191700 07008KT P6SM BKN040=

Latest METAR

750
SAUS70 KWBC 182100 RRA
MTRCLT
METAR KCLT 182052Z VRB04KT 10SM FEW035 BKN070 BKN140 BKN250 26/17 A2998
RMK AO2 SLP143 T02610167 56011


USA.gov is the U.S. government's official web portal to all federal, state and local government web resources and services.